Caldwell, NJ

7:53 PM EDT on June 02, 2015 (GMT -0400)
W2IRT | | Change Station
CLOSE
Current Station
Personal Weather Station
Location: West Caldwell, NJ
Elevation: 261 ft
Nearby Weather Stations

Elev 261 ft 40.86 °N, 74.28 °W | Updated 2 seconds ago

Light Rain
Light Rain Mist
53.7 °F
Feels Like 53.7 °F
N
0.0
Wind Variable Wind from NNE
Gusts 3.0 mph

Today
High -- | Low -- °F
--% Chance of Precip.
Yesterday
High -- | Low -- °F
Precip. -- in
5:27 AM 8:23 PM
Full, 100% visible
Pressure 30.16 in
Visibility 5.0 miles
Clouds Few 900 ft
Mostly Cloudy 6000 ft
Overcast 10000 ft
Dew Point 51 °F
Humidity 90%
Rainfall 0.49 in
Snow Depth Not available.
UV 0 out of 12
Pollen .90 out of 12
Air Quality Not available.
Flu Activity Sporadic
SPECI KCDW 022330Z AUTO 00000KT 5SM -RA BR FEW009 BKN060 OVC100 12/11 A3016 RMK AO2 P0003 T01220111 TSNO

More Conditions Fewer Conditions

Pressure 30.16 in
Visibility 5.0 miles
Clouds Few 900 ft
Mostly Cloudy 6000 ft
Overcast 10000 ft
Dew Point 51 °F
Humidity 90%
Rainfall 0.49 in
Snow Depth Not available.
UV 0 out of 12
Pollen .90 out of 12
Air Quality Not available.
Flu Activity Sporadic
SPECI KCDW 022330Z AUTO 00000KT 5SM -RA BR FEW009 BKN060 OVC100 12/11 A3016 RMK AO2 P0003 T01220111 TSNO

More Conditions Fewer Conditions

10-Day Weather Forecast

×

Almanac

Astronomy

Jun. 02, 2015 Rise Set
Actual Time
Civil Twilight
Nautical Twilight
Astronomical Twilight
Moon
Length of Visible Light
Length of Day
Tomorrow will be .
, % of the Moon is Illuminated

Today's Extremes

State Highs State Lows

Community

WunderPhotos

Upload Photos

1,826,057 photos uploaded!

WunderBlogs® & News

Nearby

Air Quality

  Air Quality AQ Index Pollutant
Not available.

Snow Depth

Station Depth Elevation

Earthquake Activity

City Distance Mag. Time & Date
Minimum magnitude displayed is 2.5.

Coastal Water Temperatures

Place Temperature

Stations

Nearby Weather Stations

Station Location Temp. Windchill Dew Point Humidity Wind Precip. Elev Updated Type